Time;durP1;ratioP1;P1;durP2;ratioP2;P2;SDS_P1;SDS_P2;PMS_P1;PMS_P2;Temp;Humidity;BMP_temperature;BMP_pressure;BME280_temperature;BME280_humidity;BME280_pressure;Samples;Min_cycle;Max_cycle;Signal;HPM_P1;HPM_P2
2021/07/29 00:00:06;;;;;;;12.60;8.25;;;18.40;99.90;;;;;;5228729;28;20636;-71
2021/07/29 00:02:39;;;;;;;11.00;8.23;;;18.40;99.90;;;;;;5228612;28;20586;-68
2021/07/29 00:05:12;;;;;;;9.75;8.13;;;18.40;99.90;;;;;;5227660;28;20632;-68
2021/07/29 00:07:44;;;;;;;12.50;8.27;;;18.40;99.90;;;;;;5227385;28;20684;-70
2021/07/29 00:10:17;;;;;;;12.98;8.57;;;18.30;99.90;;;;;;5227188;28;20287;-67
2021/07/29 00:12:49;;;;;;;12.25;8.10;;;18.30;99.90;;;;;;5228105;28;20327;-68
2021/07/29 00:15:24;;;;;;;11.65;8.18;;;18.30;99.90;;;;;;5228259;28;20271;-67
2021/07/29 00:20:28;;;;;;;9.63;7.38;;;18.30;99.90;;;;;;5228527;28;20283;-69
2021/07/29 00:23:01;;;;;;;9.95;7.80;;;18.30;99.90;;;;;;5230461;28;20245;-67
2021/07/29 00:25:34;;;;;;;10.48;7.47;;;18.30;99.90;;;;;;5246721;28;20221;-69
2021/07/29 00:28:09;;;;;;;9.73;7.97;;;18.20;99.90;;;;;;5249224;28;20255;-69
2021/07/29 00:30:41;;;;;;;9.90;7.38;;;18.20;99.90;;;;;;5235488;28;20229;-70
2021/07/29 00:33:14;;;;;;;7.63;6.80;;;18.10;99.90;;;;;;5227604;28;20229;-69
2021/07/29 00:35:46;;;;;;;8.85;7.38;;;18.10;99.90;;;;;;5243727;28;20198;-67
2021/07/29 00:38:21;;;;;;;10.38;7.22;;;18.10;99.90;;;;;;5228428;28;20304;-67
2021/07/29 00:40:54;;;;;;;9.50;7.97;;;18.10;99.90;;;;;;5247706;28;20252;-65
2021/07/29 00:43:26;;;;;;;8.77;7.88;;;18.00;99.90;;;;;;5232290;28;20656;-71
2021/07/29 00:46:01;;;;;;;10.32;7.53;;;18.00;99.90;;;;;;5232205;28;20537;-68
2021/07/29 00:48:36;;;;;;;10.18;8.25;;;18.00;99.90;;;;;;5231996;28;20688;-69
2021/07/29 00:51:10;;;;;;;9.32;7.60;;;17.90;99.90;;;;;;5232489;28;20489;-70
2021/07/29 00:53:43;;;;;;;10.90;7.20;;;17.90;99.90;;;;;;5214364;28;20232;-68
2021/07/29 00:56:16;;;;;;;9.52;7.55;;;17.90;99.90;;;;;;5230937;28;20669;-68
2021/07/29 00:58:48;;;;;;;9.43;7.65;;;17.80;99.90;;;;;;5231666;28;20680;-70
2021/07/29 01:01:20;;;;;;;10.68;7.93;;;17.80;99.90;;;;;;5234330;28;20331;-69
2021/07/29 01:03:52;;;;;;;12.98;8.48;;;17.80;99.90;;;;;;5215474;28;20601;-70
2021/07/29 01:06:27;;;;;;;11.00;7.80;;;17.90;99.90;;;;;;5232985;28;20261;-71
2021/07/29 01:09:09;;;;;;;12.02;8.07;;;17.80;99.90;;;;;;5216952;28;20293;-69
2021/07/29 01:11:43;;;;;;;10.75;9.20;;;17.80;99.90;;;;;;5232767;28;20212;-68
2021/07/29 01:14:15;;;;;;;12.25;8.23;;;17.80;99.90;;;;;;5231911;28;20324;-72
2021/07/29 01:16:47;;;;;;;11.85;8.73;;;17.80;99.90;;;;;;5231076;28;20205;-68
2021/07/29 01:19:23;;;;;;;11.32;8.18;;;17.80;99.90;;;;;;5232033;28;20229;-68
2021/07/29 01:21:57;;;;;;;10.73;8.98;;;17.70;99.90;;;;;;5233219;28;20308;-67
2021/07/29 01:24:29;;;;;;;11.05;8.07;;;17.70;99.90;;;;;;5230716;28;20256;-69
2021/07/29 01:27:02;;;;;;;11.85;8.65;;;17.70;99.90;;;;;;5231377;28;20237;-71
2021/07/29 01:29:34;;;;;;;9.35;7.53;;;17.60;99.90;;;;;;5230051;28;20268;-69
2021/07/29 01:32:06;;;;;;;10.95;8.10;;;17.60;99.90;;;;;;5230093;28;20296;-70
2021/07/29 01:34:38;;;;;;;9.80;7.93;;;17.50;99.90;;;;;;5197216;28;20244;-68
2021/07/29 01:37:11;;;;;;;11.77;8.55;;;17.50;99.90;;;;;;5230995;28;20275;-69
2021/07/29 01:39:43;;;;;;;10.48;8.05;;;17.50;99.90;;;;;;5231264;28;20308;-69
2021/07/29 01:42:15;;;;;;;11.50;7.85;;;17.40;99.90;;;;;;5213711;28;20226;-72
2021/07/29 01:44:49;;;;;;;8.90;7.45;;;17.40;99.90;;;;;;5229794;28;20328;-69
2021/07/29 01:47:21;;;;;;;11.25;8.25;;;17.40;99.90;;;;;;5230312;28;20228;-67
2021/07/29 01:49:53;;;;;;;9.10;7.95;;;17.40;99.90;;;;;;5230209;28;20719;-66
2021/07/29 01:52:26;;;;;;;12.23;8.35;;;17.30;99.90;;;;;;5230885;28;20692;-68
2021/07/29 01:55:00;;;;;;;9.90;8.30;;;17.30;99.90;;;;;;5229602;28;20323;-71
2021/07/29 01:57:32;;;;;;;15.57;8.40;;;17.30;99.90;;;;;;5229660;28;20271;-69
2021/07/29 02:00:06;;;;;;;11.48;8.75;;;17.20;99.90;;;;;;5229691;28;20307;-69
2021/07/29 02:02:38;;;;;;;13.00;9.20;;;17.20;99.90;;;;;;5229484;28;20206;-69
2021/07/29 02:05:10;;;;;;;9.93;8.45;;;17.20;99.90;;;;;;5213072;28;20324;-67
2021/07/29 02:07:42;;;;;;;9.75;7.88;;;17.10;99.90;;;;;;5213251;28;20292;-69
2021/07/29 02:10:14;;;;;;;11.18;8.65;;;17.10;99.90;;;;;;5230467;28;20229;-70
2021/07/29 02:12:47;;;;;;;11.38;8.30;;;17.10;99.90;;;;;;5230494;28;20288;-68
2021/07/29 02:15:23;;;;;;;9.65;8.65;;;17.00;99.90;;;;;;5229241;28;20400;-67
2021/07/29 02:18:00;;;;;;;11.55;8.05;;;17.00;99.90;;;;;;5229294;28;20252;-70
2021/07/29 02:20:34;;;;;;;12.68;8.25;;;17.00;99.90;;;;;;5229975;28;20239;-67
2021/07/29 02:23:06;;;;;;;9.65;7.65;;;17.00;99.90;;;;;;5229206;28;20287;-69
2021/07/29 02:25:41;;;;;;;11.18;8.45;;;17.00;99.90;;;;;;5229133;28;20271;-69
2021/07/29 02:28:15;;;;;;;11.70;8.15;;;17.00;99.90;;;;;;5229202;28;20292;-69
2021/07/29 02:30:47;;;;;;;9.50;8.50;;;16.90;99.90;;;;;;5230281;28;20640;-70
2021/07/29 02:33:20;;;;;;;10.68;8.52;;;16.90;99.90;;;;;;5230317;28;20224;-68
2021/07/29 02:35:55;;;;;;;11.07;8.57;;;16.90;99.90;;;;;;5228986;28;20599;-67
2021/07/29 02:38:27;;;;;;;10.30;7.70;;;16.90;99.90;;;;;;5230127;28;20213;-67
2021/07/29 02:40:59;;;;;;;11.50;8.47;;;16.90;99.90;;;;;;5212326;28;20322;-67
2021/07/29 02:43:31;;;;;;;11.48;8.20;;;16.80;99.90;;;;;;5229922;28;20308;-71
2021/07/29 02:46:06;;;;;;;9.32;7.85;;;16.80;99.90;;;;;;5229151;28;20514;-69
2021/07/29 02:48:39;;;;;;;9.02;7.55;;;16.80;99.90;;;;;;5228702;28;20205;-69
2021/07/29 02:51:11;;;;;;;12.27;7.88;;;16.80;99.90;;;;;;5228664;28;20312;-70
2021/07/29 02:53:43;;;;;;;9.50;7.60;;;16.80;99.90;;;;;;5229354;28;20254;-69
2021/07/29 02:56:17;;;;;;;10.32;7.57;;;16.80;99.90;;;;;;5229972;28;20272;-67
2021/07/29 02:58:52;;;;;;;10.50;8.23;;;16.80;99.90;;;;;;5230006;28;20212;-67
2021/07/29 03:01:25;;;;;;;9.50;7.13;;;16.80;99.90;;;;;;5230939;28;20232;-70
2021/07/29 03:04:00;;;;;;;10.38;7.75;;;16.90;99.90;;;;;;5212960;28;20216;-72
2021/07/29 03:06:32;;;;;;;10.10;7.23;;;16.90;99.90;;;;;;5228625;28;20225;-68
2021/07/29 03:09:09;;;;;;;9.32;7.40;;;16.90;99.90;;;;;;5229301;28;20280;-69
2021/07/29 03:11:41;;;;;;;10.73;7.00;;;16.90;99.90;;;;;;5229373;28;20229;-68
2021/07/29 03:14:15;;;;;;;9.43;7.00;;;16.90;99.90;;;;;;5228236;28;20633;-67
2021/07/29 03:16:47;;;;;;;9.82;7.03;;;16.90;99.90;;;;;;5229154;28;20229;-69
2021/07/29 03:19:19;;;;;;;8.45;7.03;;;16.90;99.90;;;;;;5228567;28;20277;-67
2021/07/29 03:21:52;;;;;;;8.60;6.75;;;17.00;99.90;;;;;;5228919;28;20261;-68
2021/07/29 03:24:24;;;;;;;7.75;6.60;;;16.90;99.90;;;;;;5228103;28;20299;-67
2021/07/29 03:26:58;;;;;;;8.95;6.85;;;17.00;99.90;;;;;;5228342;28;20202;-69
2021/07/29 03:29:30;;;;;;;8.85;6.70;;;17.00;99.90;;;;;;5228353;28;20296;-67
2021/07/29 03:32:05;;;;;;;8.88;6.55;;;17.00;99.90;;;;;;5229072;28;20565;-71
2021/07/29 03:34:38;;;;;;;9.10;6.38;;;17.00;99.90;;;;;;5228766;28;20540;-69
2021/07/29 03:37:10;;;;;;;9.18;6.40;;;17.00;99.90;;;;;;5212089;28;20264;-68
2021/07/29 03:39:44;;;;;;;7.78;6.00;;;17.00;99.90;;;;;;5228041;28;20305;-67
2021/07/29 03:42:22;;;;;;;7.55;5.85;;;17.00;99.90;;;;;;5228182;28;20324;-71
2021/07/29 03:44:57;;;;;;;8.77;6.10;;;17.10;99.90;;;;;;5228050;28;20212;-68
2021/07/29 03:47:31;;;;;;;9.38;6.43;;;17.10;99.90;;;;;;5227721;28;20236;-71
2021/07/29 03:50:05;;;;;;;6.50;5.43;;;17.10;99.90;;;;;;5227745;28;20649;-71
2021/07/29 03:52:37;;;;;;;9.55;5.88;;;17.20;99.90;;;;;;5229026;28;20229;-68
2021/07/29 03:55:10;;;;;;;7.38;5.80;;;17.20;99.90;;;;;;5227851;28;20532;-70
2021/07/29 03:57:42;;;;;;;11.75;6.57;;;17.20;99.90;;;;;;5227276;28;20241;-68
2021/07/29 04:00:14;;;;;;;6.75;5.15;;;17.30;99.90;;;;;;5228828;28;20201;-67
2021/07/29 04:02:46;;;;;;;8.90;5.28;;;17.40;99.90;;;;;;5227722;28;20352;-71
2021/07/29 04:05:21;;;;;;;7.78;5.90;;;17.50;99.90;;;;;;5228743;28;20558;-65
2021/07/29 04:07:56;;;;;;;6.60;5.35;;;17.50;99.90;;;;;;5228269;28;20287;-67
2021/07/29 04:10:27;;;;;;;7.63;5.30;;;17.60;99.90;;;;;;5211543;28;20200;-69
2021/07/29 04:12:59;;;;;;;5.70;4.80;;;17.60;99.90;;;;;;5229599;28;20229;-68
2021/07/29 04:15:34;;;;;;;6.72;4.50;;;17.70;99.90;;;;;;5231964;28;20209;-71
2021/07/29 04:18:06;;;;;;;8.25;4.95;;;17.70;99.90;;;;;;5231680;28;20233;-68
2021/07/29 04:20:42;;;;;;;6.60;5.10;;;17.80;99.90;;;;;;5231832;28;20232;-68
2021/07/29 04:23:16;;;;;;;21.65;6.05;;;17.90;99.90;;;;;;5232474;28;20609;-70
2021/07/29 04:25:50;;;;;;;8.68;5.28;;;17.90;99.90;;;;;;5232909;28;20202;-68
2021/07/29 04:28:25;;;;;;;7.03;5.60;;;18.00;99.90;;;;;;5231448;28;20225;-69
2021/07/29 04:30:57;;;;;;;8.40;5.63;;;18.10;99.90;;;;;;5232536;28;20211;-68
2021/07/29 04:33:29;;;;;;;8.75;5.65;;;18.10;99.90;;;;;;5231883;28;20291;-68
2021/07/29 04:36:05;;;;;;;10.77;5.82;;;18.10;99.90;;;;;;5232250;28;20628;-69
2021/07/29 04:38:37;;;;;;;10.65;5.38;;;18.20;99.90;;;;;;5232952;28;20652;-75
2021/07/29 04:41:09;;;;;;;8.77;5.80;;;18.20;99.90;;;;;;5232573;28;20232;-70
2021/07/29 04:43:41;;;;;;;8.80;5.82;;;18.30;99.90;;;;;;5231988;28;20226;-69
2021/07/29 04:46:13;;;;;;;8.85;5.72;;;18.40;99.90;;;;;;5232698;28;20213;-70
2021/07/29 04:48:46;;;;;;;11.27;6.03;;;18.40;99.90;;;;;;5232614;28;20665;-73
2021/07/29 04:51:18;;;;;;;8.32;5.88;;;18.50;99.90;;;;;;5231382;28;20221;-72
2021/07/29 04:53:53;;;;;;;8.13;5.75;;;18.50;99.90;;;;;;5231411;28;20248;-71
2021/07/29 04:56:25;;;;;;;8.68;5.75;;;18.60;99.90;;;;;;5232081;28;20247;-71
2021/07/29 04:58:58;;;;;;;8.43;5.55;;;18.60;99.90;;;;;;5231380;28;20307;-69
2021/07/29 05:01:33;;;;;;;10.43;5.68;;;18.70;99.90;;;;;;5230966;28;20222;-71
2021/07/29 05:04:06;;;;;;;8.13;5.43;;;18.80;99.90;;;;;;5214977;28;20221;-71
2021/07/29 05:06:38;;;;;;;7.85;5.75;;;18.80;99.90;;;;;;5232399;28;20202;-72
2021/07/29 05:09:10;;;;;;;9.30;5.82;;;18.90;99.90;;;;;;5232347;28;20559;-72
2021/07/29 05:11:42;;;;;;;9.70;5.88;;;18.90;99.90;;;;;;5230798;28;20206;-70
2021/07/29 05:14:16;;;;;;;10.23;5.85;;;19.00;99.90;;;;;;5231795;28;20230;-68
2021/07/29 05:16:48;;;;;;;9.15;5.88;;;19.00;99.90;;;;;;5231881;28;20208;-69
2021/07/29 05:19:21;;;;;;;8.90;5.88;;;19.10;99.90;;;;;;5231992;28;20252;-70
2021/07/29 05:21:53;;;;;;;7.43;5.80;;;19.20;99.90;;;;;;5214974;28;20550;-75
2021/07/29 05:24:28;;;;;;;8.45;6.10;;;19.30;99.90;;;;;;5230046;28;20217;-68
2021/07/29 05:27:00;;;;;;;9.18;5.85;;;19.30;99.90;;;;;;5230913;28;20569;-70
2021/07/29 05:29:32;;;;;;;11.02;6.47;;;19.40;99.90;;;;;;5214449;28;20641;-74
2021/07/29 05:32:05;;;;;;;9.48;5.70;;;19.50;99.90;;;;;;5197929;28;20277;-67
2021/07/29 05:34:37;;;;;;;10.10;5.18;;;19.50;99.90;;;;;;5231162;28;20233;-69
2021/07/29 05:37:11;;;;;;;9.98;5.47;;;19.60;99.90;;;;;;5229927;28;20206;-70
2021/07/29 05:39:43;;;;;;;7.53;5.45;;;19.60;99.90;;;;;;5231275;28;20671;-70
2021/07/29 05:42:22;;;;;;;6.88;4.90;;;19.70;99.90;;;;;;5229836;28;20225;-70
2021/07/29 05:44:54;;;;;;;8.60;4.95;;;19.80;99.90;;;;;;5214350;28;20221;-67
2021/07/29 05:47:28;;;;;;;9.20;5.55;;;19.90;99.90;;;;;;5213910;28;20216;-70
2021/07/29 05:50:00;;;;;;;11.82;5.20;;;19.90;99.90;;;;;;5230474;28;20645;-69
2021/07/29 05:52:35;;;;;;;7.22;5.30;;;20.00;99.90;;;;;;5231012;28;20213;-68
2021/07/29 05:55:07;;;;;;;9.10;5.57;;;20.00;99.90;;;;;;5230919;28;20660;-71
2021/07/29 05:57:39;;;;;;;10.30;5.60;;;20.10;99.90;;;;;;5229922;28;20241;-70
2021/07/29 06:00:12;;;;;;;8.52;4.88;;;20.30;99.90;;;;;;5213471;28;20230;-70
2021/07/29 06:02:44;;;;;;;8.70;5.20;;;20.40;99.90;;;;;;5229845;28;20228;-70
2021/07/29 06:05:17;;;;;;;10.68;5.25;;;20.40;99.90;;;;;;5232138;28;20534;-72
2021/07/29 06:07:48;;;;;;;9.68;5.05;;;20.50;99.90;;;;;;5214112;28;20209;-70
2021/07/29 06:10:20;;;;;;;8.25;5.30;;;20.70;99.90;;;;;;5230365;28;20235;-65
2021/07/29 06:12:53;;;;;;;8.48;4.68;;;21.80;99.90;;;;;;5230243;28;20654;-70
2021/07/29 06:15:28;;;;;;;5.93;4.47;;;23.70;99.90;;;;;;5229746;28;20225;-73
2021/07/29 06:18:01;;;;;;;5.03;3.97;;;25.80;99.90;;;;;;5229636;28;20572;-71
2021/07/29 06:20:32;;;;;;;5.15;3.55;;;27.80;99.90;;;;;;5230430;28;20406;-71
2021/07/29 06:23:07;;;;;;;4.97;3.45;;;29.70;99.90;;;;;;5230345;28;20229;-70
2021/07/29 06:25:40;;;;;;;6.93;3.78;;;31.10;99.90;;;;;;5230163;28;20675;-69
2021/07/29 06:28:14;;;;;;;5.78;3.35;;;32.20;99.90;;;;;;5230303;28;20202;-68
2021/07/29 06:30:45;;;;;;;8.60;3.47;;;33.00;99.90;;;;;;5213129;28;20315;-66
2021/07/29 06:33:17;;;;;;;5.70;3.97;;;33.60;99.90;;;;;;5229228;28;20747;-64
2021/07/29 06:36:06;;;;;;;4.30;3.45;;;34.10;99.90;;;;;;5228763;28;20306;-66
2021/07/29 06:38:39;;;;;;;5.93;3.33;;;33.70;99.00;;;;;;5229906;28;20206;-67
2021/07/29 06:41:11;;;;;;;5.50;3.13;;;34.00;98.20;;;;;;5212218;28;20331;-66
2021/07/29 06:43:43;;;;;;;6.45;3.65;;;34.60;96.50;;;;;;5228767;28;20201;-67
2021/07/29 06:46:15;;;;;;;6.95;3.83;;;34.50;95.90;;;;;;5228752;28;20320;-68
2021/07/29 06:48:48;;;;;;;4.22;3.80;;;34.90;94.90;;;;;;5228709;28;20303;-68
2021/07/29 06:51:21;;;;;;;4.65;3.70;;;35.20;93.90;;;;;;5229708;28;20224;-65
2021/07/29 06:53:55;;;;;;;6.28;3.25;;;35.50;93.20;;;;;;5229175;28;20205;-66
2021/07/29 06:56:27;;;;;;;5.00;3.63;;;36.10;92.50;;;;;;5229322;28;20263;-71
2021/07/29 06:58:59;;;;;;;4.07;3.33;;;36.30;91.70;;;;;;5230070;28;20621;-67
2021/07/29 07:01:35;;;;;;;4.18;3.58;;;36.30;90.80;;;;;;5229183;28;20233;-67
2021/07/29 07:04:07;;;;;;;4.68;3.40;;;36.40;91.00;;;;;;5228753;28;20208;-65
2021/07/29 07:06:40;;;;;;;7.07;3.85;;;36.80;90.20;;;;;;5228815;28;20229;-65
2021/07/29 07:09:12;;;;;;;3.22;2.83;;;37.00;88.50;;;;;;5229780;28;20510;-67
2021/07/29 07:11:47;;;;;;;7.28;3.33;;;37.30;87.80;;;;;;5229165;28;20240;-65
2021/07/29 07:14:19;;;;;;;3.63;3.08;;;37.30;86.20;;;;;;5228446;28;20219;-70
2021/07/29 07:16:51;;;;;;;6.68;3.40;;;37.20;84.90;;;;;;5229039;28;20247;-71
2021/07/29 07:19:23;;;;;;;3.75;3.10;;;36.90;83.50;;;;;;5229721;28;20607;-67
2021/07/29 07:21:57;;;;;;;4.97;3.40;;;36.80;83.00;;;;;;5229190;28;20228;-67
2021/07/29 07:24:32;;;;;;;4.43;3.50;;;36.60;82.90;;;;;;5228754;28;20196;-66
2021/07/29 07:27:07;;;;;;;4.13;3.15;;;36.30;83.00;;;;;;5228076;28;20228;-66
2021/07/29 07:29:40;;;;;;;4.10;3.15;;;35.80;82.90;;;;;;5229238;28;20215;-66
2021/07/29 07:32:12;;;;;;;3.40;2.45;;;34.90;82.20;;;;;;5228253;28;20229;-70
2021/07/29 07:34:44;;;;;;;4.45;3.28;;;34.50;82.80;;;;;;5227845;28;20220;-65
2021/07/29 07:37:19;;;;;;;5.13;3.25;;;34.10;83.90;;;;;;5228550;28;20229;-68
2021/07/29 07:39:51;;;;;;;6.75;3.70;;;33.40;85.20;;;;;;5229263;28;20220;-68
2021/07/29 07:42:24;;;;;;;7.05;3.53;;;32.40;87.30;;;;;;5228807;28;20233;-66
2021/07/29 07:44:56;;;;;;;5.70;3.13;;;31.80;89.00;;;;;;5229109;28;20198;-71
2021/07/29 07:47:32;;;;;;;3.75;3.00;;;31.10;90.20;;;;;;5228391;28;20221;-71
2021/07/29 07:50:05;;;;;;;3.80;2.90;;;30.40;90.60;;;;;;5229025;28;20197;-70
2021/07/29 07:52:39;;;;;;;5.90;3.22;;;29.90;90.40;;;;;;5228162;28;20241;-73
2021/07/29 07:55:11;;;;;;;5.60;3.10;;;29.60;91.00;;;;;;5227948;28;20517;-72
2021/07/29 07:57:43;;;;;;;4.18;3.50;;;29.10;91.00;;;;;;5228444;28;20284;-73
2021/07/29 08:00:17;;;;;;;5.05;3.42;;;29.00;92.00;;;;;;5228638;28;20211;-73
2021/07/29 08:02:51;;;;;;;4.15;3.60;;;29.10;92.90;;;;;;5227386;28;20600;-73
2021/07/29 08:05:25;;;;;;;3.92;3.50;;;29.20;93.20;;;;;;5228548;28;20197;-71
2021/07/29 08:08:00;;;;;;;4.90;3.15;;;29.00;92.70;;;;;;5228538;28;20717;-71
2021/07/29 08:10:32;;;;;;;3.75;3.38;;;28.70;92.80;;;;;;5228451;28;20216;-71
2021/07/29 08:13:07;;;;;;;7.30;3.58;;;28.40;93.40;;;;;;5211434;28;20243;-72
2021/07/29 08:15:39;;;;;;;4.22;3.28;;;28.30;93.20;;;;;;5227671;28;20205;-71
2021/07/29 08:18:12;;;;;;;4.65;3.20;;;28.30;93.80;;;;;;5210913;28;20249;-70
2021/07/29 08:20:46;;;;;;;4.82;3.28;;;28.30;93.70;;;;;;5228798;28;20224;-72
2021/07/29 08:23:20;;;;;;;3.45;3.13;;;28.20;93.70;;;;;;5227575;28;20263;-74
2021/07/29 08:25:52;;;;;;;4.38;3.33;;;28.10;94.20;;;;;;5227402;28;20644;-72
2021/07/29 08:28:26;;;;;;;4.38;3.00;;;28.00;94.50;;;;;;5228117;28;20233;-55
2021/07/29 08:31:00;;;;;;;4.80;3.45;;;28.20;94.90;;;;;;5228554;28;20240;-51
2021/07/29 08:33:32;;;;;;;3.42;2.67;;;28.30;93.60;;;;;;5228301;28;20276;-52
2021/07/29 08:36:10;;;;;;;5.85;2.80;;;28.40;93.60;;;;;;5228419;28;20205;-50
2021/07/29 08:38:43;;;;;;;4.13;2.70;;;28.50;93.10;;;;;;5228496;28;20228;-56
2021/07/29 08:41:16;;;;;;;4.70;2.53;;;28.70;92.80;;;;;;5227530;28;20618;-53
2021/07/29 08:43:48;;;;;;;5.03;2.97;;;28.80;93.20;;;;;;5228445;28;20233;-58
2021/07/29 08:46:21;;;;;;;5.22;2.60;;;28.50;92.90;;;;;;5227348;28;20202;-58
2021/07/29 08:48:53;;;;;;;3.97;2.80;;;28.10;92.70;;;;;;5210484;28;20236;-74
2021/07/29 08:51:25;;;;;;;5.88;2.88;;;27.80;92.90;;;;;;5227451;28;20205;-74
2021/07/29 08:54:07;;;;;;;5.75;3.00;;;27.30;93.10;;;;;;5226771;28;20226;-72
2021/07/29 08:56:41;;;;;;;3.97;3.00;;;27.20;93.70;;;;;;5227996;28;20237;-73
2021/07/29 08:59:13;;;;;;;7.22;3.03;;;27.20;94.90;;;;;;5228663;28;20244;-71
2021/07/29 09:01:52;;;;;;;6.70;2.63;;;27.40;94.60;;;;;;5231630;28;20213;-72
2021/07/29 09:04:24;;;;;;;4.20;2.80;;;27.40;93.80;;;;;;5231579;28;20233;-73
2021/07/29 09:07:04;;;;;;;6.13;3.30;;;27.20;94.20;;;;;;5230809;28;20213;-72
2021/07/29 09:09:46;;;;;;;8.88;3.30;;;26.80;94.30;;;;;;5230753;28;20534;-71
2021/07/29 09:12:19;;;;;;;5.40;3.10;;;26.60;95.10;;;;;;5231615;28;20205;-71
2021/07/29 09:14:55;;;;;;;4.90;2.65;;;26.50;95.80;;;;;;5231712;28;20549;-75
2021/07/29 09:17:45;;;;;;;3.30;2.55;;;26.20;95.40;;;;;;5232133;28;20213;-72
2021/07/29 09:20:18;;;;;;;2.85;2.55;;;26.10;95.40;;;;;;5232083;28;20230;-73
2021/07/29 09:22:53;;;;;;;3.17;2.60;;;26.00;95.70;;;;;;5232331;28;20237;-75
2021/07/29 09:25:26;;;;;;;4.53;2.70;;;26.10;95.70;;;;;;5231937;28;20232;-73
2021/07/29 09:28:03;;;;;;;3.92;2.47;;;26.10;95.30;;;;;;5230658;28;20209;-72
2021/07/29 09:30:35;;;;;;;6.40;2.63;;;26.20;95.10;;;;;;5230640;28;20240;-72
2021/07/29 09:33:17;;;;;;;5.82;2.40;;;26.30;94.60;;;;;;5213881;28;20205;-70
2021/07/29 09:35:55;;;;;;;3.35;2.63;;;26.50;94.30;;;;;;5231379;28;20252;-71
2021/07/29 09:38:32;;;;;;;3.50;2.60;;;26.50;93.70;;;;;;5231419;28;20219;-71
2021/07/29 09:41:09;;;;;;;4.72;2.92;;;26.30;94.50;;;;;;5211119;28;20469;-72
2021/07/29 09:43:41;;;;;;;5.45;3.00;;;26.10;95.10;;;;;;5210089;28;20218;-72
2021/07/29 09:46:18;;;;;;;7.82;2.80;;;25.90;95.60;;;;;;5210886;28;20579;-72
2021/07/29 09:48:51;;;;;;;3.17;2.55;;;25.60;95.40;;;;;;5209734;28;20206;-72
2021/07/29 09:51:25;;;;;;;3.38;3.05;;;25.50;95.70;;;;;;5192998;28;20530;-72
2021/07/29 09:54:00;;;;;;;5.07;3.10;;;25.40;96.70;;;;;;5210741;28;20205;-74
2021/07/29 09:56:32;;;;;;;8.55;3.35;;;25.40;96.70;;;;;;5225414;28;20580;-74
2021/07/29 09:59:22;;;;;;;5.68;2.80;;;25.30;96.10;;;;;;5237986;28;20660;-70
2021/07/29 10:01:55;;;;;;;4.32;2.95;;;25.10;95.80;;;;;;5230985;28;20613;-77
2021/07/29 10:04:36;;;;;;;6.88;3.30;;;25.20;95.80;;;;;;5229516;28;20213;-46
2021/07/29 10:07:31;;;;;;;5.05;2.75;;;25.20;96.20;;;;;;5230270;28;20240;-50
2021/07/29 10:10:07;;;;;;;8.70;3.33;;;25.40;96.70;;;;;;5229895;28;20186;-50
2021/07/29 10:12:39;;;;;;;5.05;3.40;;;25.50;96.60;;;;;;5230129;28;20223;-47
2021/07/29 10:15:12;;;;;;;4.32;3.17;;;25.60;96.10;;;;;;5230193;28;20224;-41
2021/07/29 10:17:46;;;;;;;6.20;3.28;;;25.50;96.00;;;;;;5229434;28;20209;-43
2021/07/29 10:20:21;;;;;;;4.88;3.17;;;25.70;96.50;;;;;;5230447;28;20205;-40
2021/07/29 10:23:18;;;;;;;5.68;3.53;;;25.80;95.90;;;;;;5230195;28;20229;-44
2021/07/29 10:25:52;;;;;;;3.40;2.90;;;26.10;95.90;;;;;;5229092;28;20225;-44
2021/07/29 10:28:37;;;;;;;4.13;2.90;;;26.20;95.60;;;;;;5229002;28;20292;-51
2021/07/29 10:31:12;;;;;;;5.78;2.80;;;26.30;95.20;;;;;;5230083;28;20641;-49
2021/07/29 10:33:50;;;;;;;3.78;2.33;;;26.40;93.40;;;;;;5228761;28;20205;-44
2021/07/29 10:36:43;;;;;;;6.45;2.80;;;26.30;90.30;;;;;;5228922;28;20236;-44
2021/07/29 10:39:15;;;;;;;4.95;2.75;;;26.00;90.70;;;;;;5229161;28;20193;-52
2021/07/29 10:41:55;;;;;;;5.40;2.90;;;25.70;90.90;;;;;;5229514;28;20578;-45
2021/07/29 10:44:34;;;;;;;6.57;3.13;;;25.50;90.60;;;;;;5229688;28;20232;-44
2021/07/29 10:47:14;;;;;;;4.22;2.67;;;25.40;91.00;;;;;;5228299;28;20236;-52
2021/07/29 10:49:49;;;;;;;3.00;2.58;;;25.50;91.60;;;;;;5228802;28;20212;-48
2021/07/29 10:52:21;;;;;;;3.70;2.55;;;25.50;91.30;;;;;;5232950;28;20653;-49
2021/07/29 10:54:53;;;;;;;4.18;2.60;;;25.60;91.70;;;;;;5236313;28;20206;-46
2021/07/29 10:57:25;;;;;;;5.78;2.63;;;25.70;92.00;;;;;;5240995;28;20232;-44
2021/07/29 11:00:00;;;;;;;6.43;2.72;;;25.90;91.90;;;;;;5247767;28;20200;-50
2021/07/29 11:02:37;;;;;;;3.88;3.10;;;26.00;91.90;;;;;;5233980;28;20243;-47
2021/07/29 11:05:10;;;;;;;4.20;2.53;;;26.20;91.70;;;;;;5245212;28;20193;-49
2021/07/29 11:07:42;;;;;;;4.80;2.78;;;26.30;91.20;;;;;;5235799;28;20225;-43
2021/07/29 11:10:18;;;;;;;5.53;3.03;;;26.30;91.30;;;;;;5240332;28;20228;-46
2021/07/29 11:12:50;;;;;;;6.75;2.55;;;26.30;91.70;;;;;;5234195;28;20220;-46
2021/07/29 11:15:25;;;;;;;4.55;2.80;;;26.30;91.50;;;;;;5234081;28;20280;-44
2021/07/29 11:18:13;;;;;;;3.05;2.50;;;26.20;91.60;;;;;;5234178;28;20275;-46
2021/07/29 11:20:45;;;;;;;3.83;2.60;;;26.20;91.80;;;;;;5243324;28;20270;-54
2021/07/29 11:23:38;;;;;;;3.38;2.60;;;26.00;91.70;;;;;;5245273;28;20241;-48
2021/07/29 11:26:10;;;;;;;4.32;2.50;;;25.80;92.20;;;;;;5231592;28;20470;-46
2021/07/29 11:28:43;;;;;;;8.25;2.92;;;25.60;92.40;;;;;;5228847;28;20308;-44
2021/07/29 11:31:23;;;;;;;5.15;2.72;;;25.40;92.40;;;;;;5228109;28;20225;-45
2021/07/29 11:33:57;;;;;;;4.60;2.70;;;25.20;92.30;;;;;;5229214;28;20233;-45
2021/07/29 11:36:30;;;;;;;3.63;2.50;;;25.30;92.80;;;;;;5226697;28;20205;-53
2021/07/29 11:39:05;;;;;;;4.88;2.80;;;25.50;92.30;;;;;;5230599;28;20244;-47
2021/07/29 11:41:57;;;;;;;7.57;2.85;;;25.60;92.20;;;;;;5242422;28;20605;-44
2021/07/29 11:44:48;;;;;;;5.47;2.58;;;25.70;92.10;;;;;;5228580;28;20557;-43
2021/07/29 11:47:20;;;;;;;4.30;2.53;;;25.60;92.10;;;;;;5216782;28;20189;-46
2021/07/29 11:49:52;;;;;;;3.83;2.45;;;25.70;91.90;;;;;;5240904;28;20205;-45
2021/07/29 11:52:23;;;;;;;4.50;2.70;;;25.70;92.00;;;;;;5241790;28;20216;-44
2021/07/29 11:55:09;;;;;;;4.75;2.92;;;25.70;91.90;;;;;;5231215;28;20201;-46
2021/07/29 11:57:48;;;;;;;7.65;2.60;;;25.70;92.20;;;;;;5249141;28;20323;-53
2021/07/29 12:00:28;;;;;;;4.50;2.85;;;25.70;92.50;;;;;;5236465;28;20201;-47
2021/07/29 12:03:04;;;;;;;5.18;2.75;;;25.80;92.80;;;;;;5245163;28;20252;-49
2021/07/29 12:05:39;;;;;;;3.10;2.72;;;25.80;93.00;;;;;;5232894;28;20181;-46
2021/07/29 12:08:14;;;;;;;4.78;3.08;;;25.80;92.60;;;;;;5240336;28;20493;-43
2021/07/29 12:10:46;;;;;;;7.85;2.85;;;25.90;92.60;;;;;;5232990;28;20197;-44
2021/07/29 12:13:20;;;;;;;5.10;2.80;;;25.90;92.60;;;;;;5243918;28;20255;-47
2021/07/29 12:15:54;;;;;;;6.63;2.65;;;26.00;92.60;;;;;;5237383;28;20537;-46
2021/07/29 12:18:26;;;;;;;6.43;2.83;;;26.00;92.70;;;;;;5235562;28;20216;-47
2021/07/29 12:21:01;;;;;;;4.88;3.17;;;26.20;92.90;;;;;;5243764;28;20200;-46
2021/07/29 12:23:33;;;;;;;5.05;2.90;;;26.20;92.80;;;;;;5228154;28;20590;-48
2021/07/29 12:26:17;;;;;;;4.75;3.38;;;26.20;93.00;;;;;;5237636;28;20208;-50
2021/07/29 12:28:49;;;;;;;6.10;3.20;;;26.20;92.80;;;;;;5232153;28;20197;-45
2021/07/29 12:31:26;;;;;;;6.43;3.00;;;26.30;92.50;;;;;;5244572;28;20200;-45
2021/07/29 12:34:06;;;;;;;5.43;3.40;;;26.20;92.50;;;;;;5240326;28;20284;-54
2021/07/29 12:36:50;;;;;;;4.22;2.92;;;26.20;93.00;;;;;;5232509;28;20201;-54
2021/07/29 12:39:33;;;;;;;6.38;3.20;;;26.20;93.20;;;;;;5221099;28;20193;-45
2021/07/29 12:42:27;;;;;;;4.18;3.45;;;26.30;93.50;;;;;;5242446;28;20205;-52
2021/07/29 12:45:04;;;;;;;6.97;3.30;;;26.30;92.60;;;;;;5247541;28;20208;-46
2021/07/29 12:47:35;;;;;;;7.68;3.13;;;26.20;91.90;;;;;;5232206;28;20209;-45
2021/07/29 12:50:08;;;;;;;5.60;2.92;;;26.00;91.80;;;;;;5232057;28;20206;-49
2021/07/29 12:52:43;;;;;;;5.25;3.03;;;26.00;92.00;;;;;;5247580;28;20216;-48
2021/07/29 12:55:15;;;;;;;4.85;3.28;;;26.10;91.80;;;;;;5247804;28;20209;-43
2021/07/29 12:57:54;;;;;;;4.20;2.80;;;26.10;91.30;;;;;;5239078;28;20239;-52
2021/07/29 13:00:26;;;;;;;4.57;2.85;;;26.10;90.50;;;;;;5238702;28;20208;-52
2021/07/29 13:02:58;;;;;;;6.10;3.00;;;26.10;90.00;;;;;;5246400;28;20252;-56
2021/07/29 13:05:31;;;;;;;5.50;3.15;;;26.10;89.60;;;;;;5246486;28;20190;-57
2021/07/29 13:08:03;;;;;;;3.25;2.67;;;26.20;90.00;;;;;;5209053;28;20674;-54
2021/07/29 13:10:35;;;;;;;7.57;2.70;;;26.30;88.80;;;;;;5229236;28;20201;-55
2021/07/29 13:13:10;;;;;;;8.60;2.92;;;26.20;89.60;;;;;;5247416;28;20225;-61
2021/07/29 13:15:42;;;;;;;6.55;3.30;;;26.20;89.50;;;;;;5244315;28;20197;-49
2021/07/29 13:18:16;;;;;;;3.75;2.90;;;26.10;89.10;;;;;;5242042;28;20208;-49
2021/07/29 13:20:49;;;;;;;3.63;2.60;;;26.00;90.00;;;;;;5251237;28;20215;-52
2021/07/29 13:23:21;;;;;;;5.35;3.05;;;26.10;90.60;;;;;;5219819;28;20526;-51